High Gate, Missouri
Current Conditions -  °F | °C
As of 10:35 AM on Friday 19 Dec 2014 (Local Time) from KVIH Reporting Station
Overcast Overcast  
Wind Chill: -2°   Ceiling: 900
Heat Index:   Visibility: 10mi
Dew Point: -1°   Wind: 7mph
Humidity: 89%   Direction: 110°ESE
Pressure: 30.26"   Gusts: NA
Location:  37.9936°N, 91.5964°W
Report Text: KVIH 191635Z AUTO 11006KT 10SM BKN009 OVC050 01/M01 A3026 RMK AO2 CIG 008V013 T00111006
Loading
Personal Weather Stations






























Interactive Weather Map New forecast layout! Learn more

10-Day Weather Forecast

Advertisements
Track Severe Weather on mobile